createdAt,value
2018-08-24T00:02:45.343Z,99872.92
2018-08-24T00:07:42.712Z,99867.09
2018-08-24T00:12:40.099Z,99870.77
2018-08-24T00:17:37.504Z,99864.97
2018-08-24T00:22:35.884Z,99865.25
2018-08-24T00:27:34.212Z,99856.18
2018-08-24T00:32:31.612Z,99849.80
2018-08-24T00:37:29.605Z,99841.02
2018-08-24T00:42:27.239Z,99845.80
2018-08-24T00:47:24.630Z,99845.29
2018-08-24T00:52:22.071Z,99834.63
2018-08-24T00:57:19.460Z,99837.83
2018-08-24T01:02:16.842Z,99834.91
2018-08-24T01:07:14.776Z,99836.45
2018-08-24T01:12:15.415Z,99833.28
2018-08-24T01:17:18.734Z,99837.04
2018-08-24T01:22:16.372Z,99834.10
2018-08-24T01:27:13.753Z,99837.55
2018-08-24T01:32:13.587Z,99837.55
2018-08-24T01:37:11.066Z,99834.61
2018-08-24T01:42:09.960Z,99835.47
2018-08-24T01:47:07.343Z,99847.14
2018-08-24T01:52:04.791Z,99838.03
2018-08-24T01:57:02.175Z,99837.80
2018-08-24T02:01:59.580Z,99838.58
2018-08-24T02:06:56.999Z,99837.23
2018-08-24T02:11:54.406Z,99841.80
2018-08-24T02:16:51.830Z,99841.83
2018-08-24T02:21:54.859Z,99836.75
2018-08-24T02:26:52.356Z,99841.02
2018-08-24T02:31:50.523Z,99837.80
2018-08-24T02:36:47.927Z,99844.17
2018-08-24T02:41:45.702Z,99834.81
2018-08-24T02:46:43.759Z,99838.19
2018-08-24T02:51:41.195Z,99837.37
2018-08-24T02:56:38.591Z,99834.13
2018-08-24T03:01:35.971Z,99838.07
2018-08-24T03:06:33.346Z,99842.88
2018-08-24T03:11:30.719Z,99845.00
2018-08-24T03:16:28.231Z,99842.88
2018-08-24T03:21:25.631Z,99844.69
2018-08-24T03:26:23.635Z,99852.52
2018-08-24T03:31:21.023Z,99850.14
2018-08-24T03:36:18.411Z,99858.65
2018-08-24T03:41:15.804Z,99853.84
2018-08-24T03:46:13.199Z,99849.39
2018-08-24T03:51:10.667Z,99851.81
2018-08-24T03:56:08.080Z,99855.20
2018-08-24T04:01:05.500Z,99852.67
2018-08-24T04:06:02.976Z,99848.92
2018-08-24T04:11:00.411Z,99861.08
2018-08-24T04:15:58.475Z,99857.05
2018-08-24T04:20:56.326Z,99858.05
2018-08-24T04:25:53.715Z,99860.50
2018-08-24T04:30:51.127Z,99870.64
2018-08-24T04:35:48.523Z,99875.66
2018-08-24T04:40:45.951Z,99877.45
2018-08-24T04:45:43.331Z,99885.99
2018-08-24T04:50:40.723Z,99881.77
2018-08-24T04:55:38.256Z,99874.07
2018-08-24T05:00:35.658Z,99879.11
2018-08-24T05:05:33.027Z,99879.11
2018-08-24T05:10:30.449Z,99890.20
2018-08-24T05:15:27.948Z,99883.19
2018-08-24T05:20:25.346Z,99894.67
2018-08-24T05:25:22.759Z,99893.66
2018-08-24T05:30:20.152Z,99888.33
2018-08-24T05:35:17.616Z,99897.97
2018-08-24T05:40:15.016Z,99899.53
2018-08-24T05:45:12.413Z,99898.41
2018-08-24T05:50:10.243Z,99907.94
2018-08-24T05:55:07.703Z,99913.84
2018-08-24T06:00:05.175Z,99913.97
2018-08-24T06:05:02.635Z,99914.53
2018-08-24T06:10:00.037Z,99916.91
2018-08-24T06:14:57.436Z,99913.91
2018-08-24T06:19:55.897Z,99921.72
2018-08-24T06:24:54.535Z,99924.61
2018-08-24T06:29:52.087Z,99928.47
2018-08-24T06:34:49.539Z,99922.58
2018-08-24T06:39:46.959Z,99928.32
2018-08-24T06:44:44.397Z,99932.63
2018-08-24T06:49:42.828Z,99937.78
2018-08-24T06:54:40.249Z,99940.96
2018-08-24T06:59:37.924Z,99948.30
2018-08-24T07:04:35.315Z,99947.73
2018-08-24T07:09:32.915Z,99948.94
2018-08-24T07:14:31.034Z,99953.56
2018-08-24T07:19:32.345Z,99946.00
2018-08-24T07:24:29.831Z,99946.29
2018-08-24T07:29:27.275Z,99941.20
2018-08-24T07:34:24.693Z,99948.60
2018-08-24T07:39:22.083Z,99949.08
2018-08-24T07:44:19.732Z,99953.77
2018-08-24T07:49:23.110Z,99955.78
2018-08-24T07:54:20.591Z,99955.02
2018-08-24T07:59:18.018Z,99949.93
2018-08-24T08:04:15.453Z,99951.59
2018-08-24T08:09:12.858Z,99937.50
2018-08-24T08:14:10.999Z,99942.23
2018-08-24T08:19:10.605Z,99951.56
2018-08-24T08:24:08.902Z,99954.13
2018-08-24T08:29:06.353Z,99955.99
2018-08-24T08:34:04.825Z,99960.70
2018-08-24T08:39:02.341Z,99968.42
2018-08-24T08:43:59.774Z,99972.43
2018-08-24T08:48:57.949Z,99975.02
2018-08-24T08:53:55.372Z,99986.69
2018-08-24T08:58:52.781Z,100002.59
2018-08-24T09:03:50.199Z,100003.17
2018-08-24T09:08:48.762Z,100009.13
2018-08-24T09:13:46.859Z,100013.03
2018-08-24T09:18:51.031Z,100010.33
2018-08-24T09:23:54.811Z,100017.80
2018-08-24T09:28:53.503Z,100026.04
2018-08-24T09:33:50.966Z,100030.97
2018-08-24T09:38:50.530Z,100034.73
2018-08-24T09:43:53.641Z,100043.64
2018-08-24T09:48:56.778Z,100042.45
2018-08-24T09:53:59.744Z,100040.69
2018-08-24T09:58:57.428Z,100045.25
2018-08-24T10:04:00.440Z,100048.34
2018-08-24T10:08:57.972Z,100036.91
2018-08-24T10:13:55.424Z,100034.22
2018-08-24T10:18:52.872Z,100036.02
2018-08-24T10:23:50.326Z,100035.84
2018-08-24T10:28:47.784Z,100044.88
2018-08-24T10:33:45.234Z,100040.09
2018-08-24T10:38:42.651Z,100037.41
2018-08-24T10:43:40.183Z,100037.97
2018-08-24T10:48:37.613Z,100028.34
2018-08-24T10:53:35.042Z,100031.82
2018-08-24T10:58:32.515Z,100038.52
2018-08-24T11:03:29.919Z,100038.18
2018-08-24T11:08:27.361Z,100043.16
2018-08-24T11:13:25.075Z,100028.34
2018-08-24T11:18:22.542Z,100029.53
2018-08-24T11:23:19.946Z,100033.28
2018-08-24T11:28:17.331Z,100026.85
2018-08-24T11:33:14.828Z,100051.73
2018-08-24T11:38:12.895Z,100041.16
2018-08-24T11:43:10.292Z,100041.28
2018-08-24T11:48:07.700Z,100034.28
2018-08-24T11:53:06.822Z,100032.30
2018-08-24T11:58:04.372Z,100025.17
2018-08-24T12:03:02.704Z,100031.62
2018-08-24T12:08:00.540Z,100021.14
2018-08-24T12:12:58.250Z,100030.95
2018-08-24T12:17:56.298Z,100033.35
2018-08-24T12:22:53.775Z,100033.78
2018-08-24T12:27:52.128Z,100047.55
2018-08-24T12:32:49.535Z,100039.70
2018-08-24T12:37:47.649Z,100028.45
2018-08-24T12:42:45.226Z,100023.01
2018-08-24T12:47:42.621Z,100035.02
2018-08-24T12:52:41.007Z,100041.55
2018-08-24T12:57:38.539Z,100042.48
2018-08-24T13:02:35.910Z,100058.76
2018-08-24T13:07:33.336Z,100048.11
2018-08-24T13:12:30.726Z,100049.72
2018-08-24T13:17:28.142Z,100037.53
2018-08-24T13:22:25.579Z,100023.28
2018-08-24T13:27:23.671Z,100031.84
2018-08-24T13:32:21.071Z,100026.95
2018-08-24T13:37:18.477Z,100010.22
2018-08-24T13:42:15.879Z,100012.64
2018-08-24T13:47:13.255Z,100016.16
2018-08-24T13:52:10.646Z,100018.44
2018-08-24T13:57:08.031Z,100008.81
2018-08-24T14:02:05.466Z,100018.16
2018-08-24T14:07:02.891Z,100010.37
2018-08-24T14:12:00.295Z,100006.96
2018-08-24T14:16:57.718Z,100015.71
2018-08-24T14:21:55.119Z,100004.61
2018-08-24T14:26:52.511Z,99997.70
2018-08-24T14:31:49.986Z,100007.63
2018-08-24T14:36:47.396Z,99996.20
2018-08-24T14:41:44.799Z,99998.81
2018-08-24T14:46:42.876Z,99992.63
2018-08-24T14:51:40.316Z,99996.20
2018-08-24T14:56:38.619Z,99994.20
2018-08-24T15:01:36.009Z,99991.39
2018-08-24T15:06:33.443Z,99980.71
2018-08-24T15:11:30.843Z,99992.14
2018-08-24T15:16:28.268Z,99991.94
2018-08-24T15:21:25.661Z,99998.06
2018-08-24T15:26:23.052Z,99993.32
2018-08-24T15:31:21.404Z,99993.33
2018-08-24T15:36:18.802Z,99986.66
2018-08-24T15:41:16.222Z,99994.27
2018-08-24T15:46:13.683Z,99994.67
2018-08-24T15:51:11.025Z,99991.21
2018-08-24T15:56:08.416Z,99986.97
2018-08-24T16:01:05.829Z,99996.88
2018-08-24T16:06:03.274Z,99987.52
2018-08-24T16:11:00.716Z,99988.05
2018-08-24T16:15:58.112Z,99991.53
2018-08-24T16:20:55.510Z,99990.19
2018-08-24T16:25:53.101Z,99993.69
2018-08-24T16:30:50.496Z,99998.45
2018-08-24T16:35:48.755Z,100014.47
2018-08-24T16:40:46.199Z,100002.70
2018-08-24T16:45:44.680Z,100008.56
2018-08-24T16:50:42.111Z,100019.18
2018-08-24T16:55:39.560Z,100029.56
2018-08-24T17:00:36.965Z,100031.42
2018-08-24T17:05:34.448Z,100042.33
2018-08-24T17:10:31.858Z,100044.14
2018-08-24T17:15:29.308Z,100045.43
2018-08-24T17:20:26.697Z,100044.37
2018-08-24T17:25:25.076Z,100044.56
2018-08-24T17:30:22.490Z,100041.86
2018-08-24T17:35:20.432Z,100047.73
2018-08-24T17:40:17.809Z,100039.42
2018-08-24T17:45:15.855Z,100040.25
2018-08-24T17:50:14.302Z,100038.31
2018-08-24T17:55:11.690Z,100024.43
2018-08-24T18:00:09.171Z,100024.59
2018-08-24T18:05:06.671Z,100012.77
2018-08-24T18:10:04.709Z,100023.64
2018-08-24T18:15:02.368Z,100025.74
2018-08-24T18:20:00.617Z,100031.00
2018-08-24T18:24:58.287Z,100038.72
2018-08-24T18:29:56.366Z,100041.88
2018-08-24T18:34:53.773Z,100043.67
2018-08-24T18:39:51.188Z,100042.34
2018-08-24T18:44:48.675Z,100047.89
2018-08-24T18:49:52.581Z,100046.81
2018-08-24T18:54:49.980Z,100045.72
2018-08-24T18:59:47.351Z,100059.30
2018-08-24T19:04:44.760Z,100062.73
2018-08-24T19:09:42.503Z,100065.62
2018-08-24T19:14:39.891Z,100069.58
2018-08-24T19:19:49.428Z,100078.55
2018-08-24T19:24:46.825Z,100079.59
2018-08-24T19:29:49.911Z,100089.61
2018-08-24T19:34:47.303Z,100088.22
2018-08-24T19:39:50.032Z,100094.26
2018-08-24T19:44:47.427Z,100090.49
2018-08-24T19:49:51.695Z,100105.52
2018-08-24T19:54:49.083Z,100107.06
2018-08-24T19:59:47.407Z,100111.69
2018-08-24T20:04:44.823Z,100117.73
2018-08-24T20:09:47.792Z,100106.41
2018-08-24T20:14:51.468Z,100103.89
2018-08-24T20:19:51.793Z,100102.05
2018-08-24T20:24:49.190Z,100099.82
2018-08-24T20:29:46.567Z,100098.49
2018-08-24T20:34:43.948Z,100091.02
2018-08-24T20:39:42.287Z,100087.71
2018-08-24T20:44:39.655Z,100088.88
2018-08-24T20:49:41.272Z,100093.30
2018-08-24T20:54:38.724Z,100086.80
2018-08-24T20:59:36.095Z,100078.78
2018-08-24T21:04:33.612Z,100071.78
2018-08-24T21:09:31.003Z,100069.00
2018-08-24T21:14:28.442Z,100066.42
2018-08-24T21:19:29.413Z,100064.88
2018-08-24T21:24:26.904Z,100061.75
2018-08-24T21:29:24.287Z,100052.58
2018-08-24T21:34:21.666Z,100050.95
2018-08-24T21:39:19.050Z,100050.43
2018-08-24T21:44:16.419Z,100050.33
2018-08-24T21:49:20.312Z,100049.55
2018-08-24T21:54:17.766Z,100039.22
2018-08-24T21:59:15.143Z,100044.48
2018-08-24T22:04:13.794Z,100042.23
2018-08-24T22:09:11.231Z,100037.24
2018-08-24T22:14:08.611Z,100040.53
2018-08-24T22:19:09.645Z,100032.41
2018-08-24T22:24:07.064Z,100029.17
2018-08-24T22:29:04.791Z,100027.63
2018-08-24T22:34:02.366Z,100034.13
2018-08-24T22:38:59.730Z,100028.77
2018-08-24T22:43:57.123Z,100021.49
2018-08-24T22:48:54.499Z,100021.38
2018-08-24T22:53:51.874Z,100016.19
2018-08-24T22:58:50.047Z,100017.83
2018-08-24T23:03:47.423Z,100025.17
2018-08-24T23:08:44.811Z,100014.92
2018-08-24T23:13:42.175Z,100009.51
2018-08-24T23:18:39.539Z,100005.06
2018-08-24T23:23:36.940Z,99999.36
2018-08-24T23:28:34.307Z,99987.81
2018-08-24T23:33:31.676Z,99986.91
2018-08-24T23:38:29.091Z,99985.58
2018-08-24T23:43:26.464Z,99983.40
2018-08-24T23:48:23.920Z,99964.20
2018-08-24T23:53:21.301Z,99967.12
2018-08-24T23:58:18.687Z,99960.72
